sensor_id;sensor_type;location;lat;lon;timestamp;temperature;humidity
19397;DHT22;9834;48.076;11.878;2022-07-29T00:01:46;18.60;99.90
19397;DHT22;9834;48.076;11.878;2022-07-29T00:04:13;18.40;99.90
19397;DHT22;9834;48.076;11.878;2022-07-29T00:06:42;18.30;99.90
19397;DHT22;9834;48.076;11.878;2022-07-29T00:09:10;18.30;99.90
19397;DHT22;9834;48.076;11.878;2022-07-29T00:11:38;18.30;99.90
19397;DHT22;9834;48.076;11.878;2022-07-29T00:14:05;18.40;99.90
19397;DHT22;9834;48.076;11.878;2022-07-29T00:16:32;18.50;99.90
19397;DHT22;9834;48.076;11.878;2022-07-29T00:18:59;18.40;99.90
19397;DHT22;9834;48.076;11.878;2022-07-29T00:21:26;18.50;99.90
19397;DHT22;9834;48.076;11.878;2022-07-29T00:23:53;18.50;99.90
19397;DHT22;9834;48.076;11.878;2022-07-29T00:26:22;18.60;99.90
19397;DHT22;9834;48.076;11.878;2022-07-29T00:28:49;18.60;99.90
19397;DHT22;9834;48.076;11.878;2022-07-29T00:31:16;18.60;99.90
19397;DHT22;9834;48.076;11.878;2022-07-29T00:33:43;18.70;99.90
19397;DHT22;9834;48.076;11.878;2022-07-29T00:36:10;18.80;99.90
19397;DHT22;9834;48.076;11.878;2022-07-29T00:38:36;18.80;99.90
19397;DHT22;9834;48.076;11.878;2022-07-29T00:41:02;18.80;99.90
19397;DHT22;9834;48.076;11.878;2022-07-29T00:43:31;18.80;99.90
19397;DHT22;9834;48.076;11.878;2022-07-29T00:45:58;18.90;99.90
19397;DHT22;9834;48.076;11.878;2022-07-29T00:48:25;18.90;99.90
19397;DHT22;9834;48.076;11.878;2022-07-29T00:50:52;18.90;99.90
19397;DHT22;9834;48.076;11.878;2022-07-29T00:53:19;18.90;99.90
19397;DHT22;9834;48.076;11.878;2022-07-29T00:55:47;18.90;99.90
19397;DHT22;9834;48.076;11.878;2022-07-29T00:58:14;18.80;99.90
19397;DHT22;9834;48.076;11.878;2022-07-29T01:00:42;18.80;99.90
19397;DHT22;9834;48.076;11.878;2022-07-29T01:03:09;18.70;99.90
19397;DHT22;9834;48.076;11.878;2022-07-29T01:05:36;18.80;99.90
19397;DHT22;9834;48.076;11.878;2022-07-29T01:08:04;18.70;99.90
19397;DHT22;9834;48.076;11.878;2022-07-29T01:10:32;18.70;99.90
19397;DHT22;9834;48.076;11.878;2022-07-29T01:13:00;18.60;99.90
19397;DHT22;9834;48.076;11.878;2022-07-29T01:15:28;18.60;99.90
19397;DHT22;9834;48.076;11.878;2022-07-29T01:18:03;18.50;99.90
19397;DHT22;9834;48.076;11.878;2022-07-29T01:20:50;18.50;99.90
19397;DHT22;9834;48.076;11.878;2022-07-29T01:23:43;18.50;99.90
19397;DHT22;9834;48.076;11.878;2022-07-29T01:26:31;18.40;99.90
19397;DHT22;9834;48.076;11.878;2022-07-29T01:29:06;18.30;99.90
19397;DHT22;9834;48.076;11.878;2022-07-29T01:31:43;18.40;99.90
19397;DHT22;9834;48.076;11.878;2022-07-29T01:34:17;18.30;99.90
19397;DHT22;9834;48.076;11.878;2022-07-29T01:36:50;18.30;99.90
19397;DHT22;9834;48.076;11.878;2022-07-29T01:39:21;18.20;99.90
19397;DHT22;9834;48.076;11.878;2022-07-29T01:41:56;18.20;99.90
19397;DHT22;9834;48.076;11.878;2022-07-29T01:44:30;18.20;99.90
19397;DHT22;9834;48.076;11.878;2022-07-29T01:47:01;18.10;99.90
19397;DHT22;9834;48.076;11.878;2022-07-29T01:49:35;18.00;99.90
19397;DHT22;9834;48.076;11.878;2022-07-29T01:52:07;18.00;99.90
19397;DHT22;9834;48.076;11.878;2022-07-29T01:54:38;17.90;99.90
19397;DHT22;9834;48.076;11.878;2022-07-29T01:57:10;17.80;99.90
19397;DHT22;9834;48.076;11.878;2022-07-29T01:59:42;17.70;99.90
19397;DHT22;9834;48.076;11.878;2022-07-29T02:02:11;17.60;99.90
19397;DHT22;9834;48.076;11.878;2022-07-29T02:04:39;17.50;99.90
19397;DHT22;9834;48.076;11.878;2022-07-29T02:07:10;17.50;99.90
19397;DHT22;9834;48.076;11.878;2022-07-29T02:09:38;17.40;99.90
19397;DHT22;9834;48.076;11.878;2022-07-29T02:12:07;17.30;99.90
19397;DHT22;9834;48.076;11.878;2022-07-29T02:14:37;17.20;99.90
19397;DHT22;9834;48.076;11.878;2022-07-29T02:17:06;17.20;99.90
19397;DHT22;9834;48.076;11.878;2022-07-29T02:19:34;17.20;99.90
19397;DHT22;9834;48.076;11.878;2022-07-29T02:22:05;17.10;99.90
19397;DHT22;9834;48.076;11.878;2022-07-29T02:24:34;17.10;99.90
19397;DHT22;9834;48.076;11.878;2022-07-29T02:27:03;17.10;99.90
19397;DHT22;9834;48.076;11.878;2022-07-29T02:29:31;17.00;99.90
19397;DHT22;9834;48.076;11.878;2022-07-29T02:31:59;17.00;99.90
19397;DHT22;9834;48.076;11.878;2022-07-29T02:34:29;17.00;99.90
19397;DHT22;9834;48.076;11.878;2022-07-29T02:36:57;16.90;99.90
19397;DHT22;9834;48.076;11.878;2022-07-29T02:39:25;16.90;99.90
19397;DHT22;9834;48.076;11.878;2022-07-29T02:41:58;16.90;99.90
19397;DHT22;9834;48.076;11.878;2022-07-29T02:44:26;16.90;99.90
19397;DHT22;9834;48.076;11.878;2022-07-29T02:46:57;16.90;99.90
19397;DHT22;9834;48.076;11.878;2022-07-29T02:49:35;16.90;99.90
19397;DHT22;9834;48.076;11.878;2022-07-29T02:52:03;16.90;99.90
19397;DHT22;9834;48.076;11.878;2022-07-29T02:54:34;17.00;99.90
19397;DHT22;9834;48.076;11.878;2022-07-29T02:57:09;17.00;99.90
19397;DHT22;9834;48.076;11.878;2022-07-29T02:59:39;17.00;99.90
19397;DHT22;9834;48.076;11.878;2022-07-29T03:02:08;17.00;99.90
19397;DHT22;9834;48.076;11.878;2022-07-29T03:04:40;17.00;99.90
19397;DHT22;9834;48.076;11.878;2022-07-29T03:07:08;17.00;99.90
19397;DHT22;9834;48.076;11.878;2022-07-29T03:09:37;17.00;99.90
19397;DHT22;9834;48.076;11.878;2022-07-29T03:12:05;17.00;99.90
19397;DHT22;9834;48.076;11.878;2022-07-29T03:14:33;17.00;99.90
19397;DHT22;9834;48.076;11.878;2022-07-29T03:17:02;16.90;99.90
19397;DHT22;9834;48.076;11.878;2022-07-29T03:19:29;16.90;99.90
19397;DHT22;9834;48.076;11.878;2022-07-29T03:21:59;16.80;99.90
19397;DHT22;9834;48.076;11.878;2022-07-29T03:24:28;16.80;99.90
19397;DHT22;9834;48.076;11.878;2022-07-29T03:26:56;16.70;99.90
19397;DHT22;9834;48.076;11.878;2022-07-29T03:29:23;16.60;99.90
19397;DHT22;9834;48.076;11.878;2022-07-29T03:31:51;16.50;99.90
19397;DHT22;9834;48.076;11.878;2022-07-29T03:34:18;16.40;99.90
19397;DHT22;9834;48.076;11.878;2022-07-29T03:36:46;16.40;99.90
19397;DHT22;9834;48.076;11.878;2022-07-29T03:39:17;16.30;99.90
19397;DHT22;9834;48.076;11.878;2022-07-29T03:41:48;16.20;99.90
19397;DHT22;9834;48.076;11.878;2022-07-29T03:44:18;16.20;99.90
19397;DHT22;9834;48.076;11.878;2022-07-29T03:46:46;16.10;99.90
19397;DHT22;9834;48.076;11.878;2022-07-29T03:49:19;16.00;99.90
19397;DHT22;9834;48.076;11.878;2022-07-29T03:51:52;15.90;99.90
19397;DHT22;9834;48.076;11.878;2022-07-29T03:54:21;16.00;99.90
19397;DHT22;9834;48.076;11.878;2022-07-29T03:56:50;16.00;99.90
19397;DHT22;9834;48.076;11.878;2022-07-29T03:59:20;16.00;99.90
19397;DHT22;9834;48.076;11.878;2022-07-29T04:01:51;15.90;99.90
19397;DHT22;9834;48.076;11.878;2022-07-29T04:04:19;15.90;99.90
19397;DHT22;9834;48.076;11.878;2022-07-29T04:06:51;15.80;99.90
19397;DHT22;9834;48.076;11.878;2022-07-29T04:09:18;15.70;99.90
19397;DHT22;9834;48.076;11.878;2022-07-29T04:11:47;15.70;99.90
19397;DHT22;9834;48.076;11.878;2022-07-29T04:14:14;15.70;99.90
19397;DHT22;9834;48.076;11.878;2022-07-29T04:16:41;15.60;99.90
19397;DHT22;9834;48.076;11.878;2022-07-29T04:19:10;15.60;99.90
19397;DHT22;9834;48.076;11.878;2022-07-29T04:21:37;15.60;99.90
19397;DHT22;9834;48.076;11.878;2022-07-29T04:24:06;15.60;99.90
19397;DHT22;9834;48.076;11.878;2022-07-29T04:26:36;15.50;99.90
19397;DHT22;9834;48.076;11.878;2022-07-29T04:29:05;15.50;99.90
19397;DHT22;9834;48.076;11.878;2022-07-29T04:31:32;15.50;99.90
19397;DHT22;9834;48.076;11.878;2022-07-29T04:33:59;15.50;99.90
19397;DHT22;9834;48.076;11.878;2022-07-29T04:36:29;15.50;99.90
19397;DHT22;9834;48.076;11.878;2022-07-29T04:38:56;15.50;99.90
19397;DHT22;9834;48.076;11.878;2022-07-29T04:41:23;15.50;99.90
19397;DHT22;9834;48.076;11.878;2022-07-29T04:43:50;15.50;99.90
19397;DHT22;9834;48.076;11.878;2022-07-29T04:46:21;15.50;99.90
19397;DHT22;9834;48.076;11.878;2022-07-29T04:48:48;15.60;99.90
19397;DHT22;9834;48.076;11.878;2022-07-29T04:51:15;15.60;99.90
19397;DHT22;9834;48.076;11.878;2022-07-29T04:53:45;15.60;99.90
19397;DHT22;9834;48.076;11.878;2022-07-29T04:56:11;15.70;99.90
19397;DHT22;9834;48.076;11.878;2022-07-29T04:58:39;15.70;99.90
19397;DHT22;9834;48.076;11.878;2022-07-29T05:01:06;15.80;99.90
19397;DHT22;9834;48.076;11.878;2022-07-29T05:03:36;15.80;99.90
19397;DHT22;9834;48.076;11.878;2022-07-29T05:06:03;15.90;99.90
19397;DHT22;9834;48.076;11.878;2022-07-29T05:08:30;15.90;99.90
19397;DHT22;9834;48.076;11.878;2022-07-29T05:10:57;16.10;99.90
19397;DHT22;9834;48.076;11.878;2022-07-29T05:13:24;16.20;99.90
19397;DHT22;9834;48.076;11.878;2022-07-29T05:15:51;16.30;99.90
19397;DHT22;9834;48.076;11.878;2022-07-29T05:18:18;16.50;99.90
19397;DHT22;9834;48.076;11.878;2022-07-29T05:20:46;16.60;99.90
19397;DHT22;9834;48.076;11.878;2022-07-29T05:23:13;16.70;99.90
19397;DHT22;9834;48.076;11.878;2022-07-29T05:25:40;16.90;99.90
19397;DHT22;9834;48.076;11.878;2022-07-29T05:28:07;17.20;99.90
19397;DHT22;9834;48.076;11.878;2022-07-29T05:30:34;17.50;99.90
19397;DHT22;9834;48.076;11.878;2022-07-29T05:33:01;17.70;99.90
19397;DHT22;9834;48.076;11.878;2022-07-29T05:35:28;18.00;99.90
19397;DHT22;9834;48.076;11.878;2022-07-29T05:37:56;18.30;99.90
19397;DHT22;9834;48.076;11.878;2022-07-29T05:40:23;18.60;99.90
19397;DHT22;9834;48.076;11.878;2022-07-29T05:42:50;18.80;99.90
19397;DHT22;9834;48.076;11.878;2022-07-29T05:45:17;19.00;99.90
19397;DHT22;9834;48.076;11.878;2022-07-29T05:47:44;19.20;99.90
19397;DHT22;9834;48.076;11.878;2022-07-29T05:50:11;19.30;99.90
19397;DHT22;9834;48.076;11.878;2022-07-29T05:52:38;19.30;99.90
19397;DHT22;9834;48.076;11.878;2022-07-29T05:55:09;19.30;99.90
19397;DHT22;9834;48.076;11.878;2022-07-29T05:57:36;19.20;99.90
19397;DHT22;9834;48.076;11.878;2022-07-29T06:00:04;19.10;99.90
19397;DHT22;9834;48.076;11.878;2022-07-29T06:02:31;19.00;99.90
19397;DHT22;9834;48.076;11.878;2022-07-29T06:04:58;18.90;99.90
19397;DHT22;9834;48.076;11.878;2022-07-29T06:07:25;18.80;99.90
19397;DHT22;9834;48.076;11.878;2022-07-29T06:09:52;18.70;99.90
19397;DHT22;9834;48.076;11.878;2022-07-29T06:12:21;18.60;99.90
19397;DHT22;9834;48.076;11.878;2022-07-29T06:14:48;18.70;99.90
19397;DHT22;9834;48.076;11.878;2022-07-29T06:17:16;18.70;99.90
19397;DHT22;9834;48.076;11.878;2022-07-29T06:19:43;18.80;99.90
19397;DHT22;9834;48.076;11.878;2022-07-29T06:22:10;18.80;99.90
19397;DHT22;9834;48.076;11.878;2022-07-29T06:24:37;18.80;99.90
19397;DHT22;9834;48.076;11.878;2022-07-29T06:27:07;18.80;99.90
19397;DHT22;9834;48.076;11.878;2022-07-29T06:29:35;18.90;99.90
19397;DHT22;9834;48.076;11.878;2022-07-29T06:32:03;19.00;99.90
19397;DHT22;9834;48.076;11.878;2022-07-29T06:34:30;19.10;99.90
19397;DHT22;9834;48.076;11.878;2022-07-29T06:36:57;19.10;99.90
19397;DHT22;9834;48.076;11.878;2022-07-29T06:39:24;19.20;99.90
19397;DHT22;9834;48.076;11.878;2022-07-29T06:41:51;19.30;99.90
19397;DHT22;9834;48.076;11.878;2022-07-29T06:44:18;19.50;99.90
19397;DHT22;9834;48.076;11.878;2022-07-29T06:46:46;19.60;99.90
19397;DHT22;9834;48.076;11.878;2022-07-29T06:49:15;19.70;99.90
19397;DHT22;9834;48.076;11.878;2022-07-29T06:51:42;19.80;99.90
19397;DHT22;9834;48.076;11.878;2022-07-29T06:54:09;19.90;99.90
19397;DHT22;9834;48.076;11.878;2022-07-29T06:56:36;20.00;99.90
19397;DHT22;9834;48.076;11.878;2022-07-29T06:59:04;20.10;99.90
19397;DHT22;9834;48.076;11.878;2022-07-29T07:01:32;20.20;99.90
19397;DHT22;9834;48.076;11.878;2022-07-29T07:04:01;20.30;99.90
19397;DHT22;9834;48.076;11.878;2022-07-29T07:06:28;20.40;99.90
19397;DHT22;9834;48.076;11.878;2022-07-29T07:08:55;20.40;99.90
19397;DHT22;9834;48.076;11.878;2022-07-29T07:11:22;20.50;99.90
19397;DHT22;9834;48.076;11.878;2022-07-29T07:13:49;20.60;99.90
19397;DHT22;9834;48.076;11.878;2022-07-29T07:16:16;20.60;99.90
19397;DHT22;9834;48.076;11.878;2022-07-29T07:18:43;20.70;99.90
19397;DHT22;9834;48.076;11.878;2022-07-29T07:21:12;20.80;99.90
19397;DHT22;9834;48.076;11.878;2022-07-29T07:23:39;20.90;99.90
19397;DHT22;9834;48.076;11.878;2022-07-29T07:26:06;21.00;99.90
19397;DHT22;9834;48.076;11.878;2022-07-29T07:28:33;21.10;99.90
19397;DHT22;9834;48.076;11.878;2022-07-29T07:31:00;21.10;99.90
19397;DHT22;9834;48.076;11.878;2022-07-29T07:33:27;21.20;99.90
19397;DHT22;9834;48.076;11.878;2022-07-29T07:35:54;21.20;99.90
19397;DHT22;9834;48.076;11.878;2022-07-29T07:38:23;21.30;99.90
19397;DHT22;9834;48.076;11.878;2022-07-29T07:40:50;21.30;99.90
19397;DHT22;9834;48.076;11.878;2022-07-29T07:43:17;21.30;99.90
19397;DHT22;9834;48.076;11.878;2022-07-29T07:45:44;21.40;99.90
19397;DHT22;9834;48.076;11.878;2022-07-29T07:48:11;21.40;99.90
19397;DHT22;9834;48.076;11.878;2022-07-29T07:50:38;21.60;99.90
19397;DHT22;9834;48.076;11.878;2022-07-29T07:53:05;21.60;99.90
19397;DHT22;9834;48.076;11.878;2022-07-29T07:55:33;21.80;99.90
19397;DHT22;9834;48.076;11.878;2022-07-29T07:58:06;21.90;99.90
19397;DHT22;9834;48.076;11.878;2022-07-29T08:00:33;22.10;99.90
19397;DHT22;9834;48.076;11.878;2022-07-29T08:03:00;22.30;99.90
19397;DHT22;9834;48.076;11.878;2022-07-29T08:05:27;22.40;99.90
19397;DHT22;9834;48.076;11.878;2022-07-29T08:07:54;22.60;99.90
19397;DHT22;9834;48.076;11.878;2022-07-29T08:10:21;22.70;99.90
19397;DHT22;9834;48.076;11.878;2022-07-29T08:13:03;22.90;99.90
19397;DHT22;9834;48.076;11.878;2022-07-29T08:15:30;23.00;99.90
19397;DHT22;9834;48.076;11.878;2022-07-29T08:17:58;23.10;99.90
19397;DHT22;9834;48.076;11.878;2022-07-29T08:20:25;23.30;99.50
19397;DHT22;9834;48.076;11.878;2022-07-29T08:22:52;23.30;99.90
19397;DHT22;9834;48.076;11.878;2022-07-29T08:25:20;23.40;98.90
19397;DHT22;9834;48.076;11.878;2022-07-29T08:27:48;23.50;99.40
19397;DHT22;9834;48.076;11.878;2022-07-29T08:30:17;23.50;99.10
19397;DHT22;9834;48.076;11.878;2022-07-29T08:32:44;23.60;96.80
19397;DHT22;9834;48.076;11.878;2022-07-29T08:35:11;23.70;96.50
19397;DHT22;9834;48.076;11.878;2022-07-29T08:37:38;23.70;95.60
19397;DHT22;9834;48.076;11.878;2022-07-29T08:40:05;23.70;93.80
19397;DHT22;9834;48.076;11.878;2022-07-29T08:42:32;23.80;95.20
19397;DHT22;9834;48.076;11.878;2022-07-29T08:44:59;24.10;94.10
19397;DHT22;9834;48.076;11.878;2022-07-29T08:47:28;24.30;92.90
19397;DHT22;9834;48.076;11.878;2022-07-29T08:49:56;24.30;93.60
19397;DHT22;9834;48.076;11.878;2022-07-29T08:52:25;24.50;93.00
19397;DHT22;9834;48.076;11.878;2022-07-29T08:54:53;24.50;90.10
19397;DHT22;9834;48.076;11.878;2022-07-29T08:57:21;24.60;84.10
19397;DHT22;9834;48.076;11.878;2022-07-29T08:59:50;24.70;81.70
19397;DHT22;9834;48.076;11.878;2022-07-29T09:02:20;24.90;77.10
19397;DHT22;9834;48.076;11.878;2022-07-29T09:04:48;25.00;75.30
19397;DHT22;9834;48.076;11.878;2022-07-29T09:07:17;25.00;74.40
19397;DHT22;9834;48.076;11.878;2022-07-29T09:09:44;25.20;73.60
19397;DHT22;9834;48.076;11.878;2022-07-29T09:12:11;25.40;74.10
19397;DHT22;9834;48.076;11.878;2022-07-29T09:14:39;25.60;74.00
19397;DHT22;9834;48.076;11.878;2022-07-29T09:17:07;25.60;75.00
19397;DHT22;9834;48.076;11.878;2022-07-29T09:19:36;25.90;75.40
19397;DHT22;9834;48.076;11.878;2022-07-29T09:22:06;26.00;74.00
19397;DHT22;9834;48.076;11.878;2022-07-29T09:24:39;26.10;71.10
19397;DHT22;9834;48.076;11.878;2022-07-29T09:27:18;26.10;73.00
19397;DHT22;9834;48.076;11.878;2022-07-29T09:29:46;26.10;72.80
19397;DHT22;9834;48.076;11.878;2022-07-29T09:32:13;25.90;71.90
19397;DHT22;9834;48.076;11.878;2022-07-29T09:34:40;25.80;72.10
19397;DHT22;9834;48.076;11.878;2022-07-29T09:37:09;25.80;72.60
19397;DHT22;9834;48.076;11.878;2022-07-29T09:39:38;26.00;73.40
19397;DHT22;9834;48.076;11.878;2022-07-29T09:42:11;26.30;71.70
19397;DHT22;9834;48.076;11.878;2022-07-29T09:44:43;26.50;72.20
19397;DHT22;9834;48.076;11.878;2022-07-29T09:47:10;26.60;69.80
19397;DHT22;9834;48.076;11.878;2022-07-29T09:49:52;26.80;68.30
19397;DHT22;9834;48.076;11.878;2022-07-29T09:52:21;26.80;69.00
19397;DHT22;9834;48.076;11.878;2022-07-29T09:54:48;26.70;67.60
19397;DHT22;9834;48.076;11.878;2022-07-29T09:57:23;26.60;68.40
19397;DHT22;9834;48.076;11.878;2022-07-29T09:59:58;26.90;70.10
19397;DHT22;9834;48.076;11.878;2022-07-29T10:02:30;27.60;70.40
19397;DHT22;9834;48.076;11.878;2022-07-29T10:04:57;28.00;65.10
19397;DHT22;9834;48.076;11.878;2022-07-29T10:07:26;28.00;63.90
19397;DHT22;9834;48.076;11.878;2022-07-29T10:09:54;28.20;62.80
19397;DHT22;9834;48.076;11.878;2022-07-29T10:12:22;28.30;62.40
19397;DHT22;9834;48.076;11.878;2022-07-29T10:14:50;28.80;62.20
19397;DHT22;9834;48.076;11.878;2022-07-29T10:17:17;29.30;59.00
19397;DHT22;9834;48.076;11.878;2022-07-29T10:19:45;29.50;58.60
19397;DHT22;9834;48.076;11.878;2022-07-29T10:22:12;29.10;58.50
19397;DHT22;9834;48.076;11.878;2022-07-29T10:24:40;28.90;60.10
19397;DHT22;9834;48.076;11.878;2022-07-29T10:27:09;28.60;60.10
19397;DHT22;9834;48.076;11.878;2022-07-29T10:29:36;28.40;60.00
19397;DHT22;9834;48.076;11.878;2022-07-29T10:32:16;28.50;59.80
19397;DHT22;9834;48.076;11.878;2022-07-29T10:38:04;29.30;58.60
19397;DHT22;9834;48.076;11.878;2022-07-29T10:40:45;28.70;62.20
19397;DHT22;9834;48.076;11.878;2022-07-29T10:43:34;28.70;61.10
19397;DHT22;9834;48.076;11.878;2022-07-29T10:46:04;28.70;61.60
19397;DHT22;9834;48.076;11.878;2022-07-29T10:48:31;28.80;60.20
19397;DHT22;9834;48.076;11.878;2022-07-29T10:50:59;28.90;59.20
19397;DHT22;9834;48.076;11.878;2022-07-29T10:53:46;29.00;59.00
19397;DHT22;9834;48.076;11.878;2022-07-29T10:56:25;29.00;58.50
19397;DHT22;9834;48.076;11.878;2022-07-29T10:59:25;28.80;58.10
19397;DHT22;9834;48.076;11.878;2022-07-29T11:01:54;28.80;59.50
19397;DHT22;9834;48.076;11.878;2022-07-29T11:04:59;28.60;59.60
19397;DHT22;9834;48.076;11.878;2022-07-29T11:07:26;28.20;60.00
19397;DHT22;9834;48.076;11.878;2022-07-29T11:10:20;27.90;62.40
19397;DHT22;9834;48.076;11.878;2022-07-29T11:12:49;27.30;63.80
19397;DHT22;9834;48.076;11.878;2022-07-29T11:15:18;26.80;64.80
19397;DHT22;9834;48.076;11.878;2022-07-29T11:18:08;26.60;66.80
19397;DHT22;9834;48.076;11.878;2022-07-29T11:20:40;26.50;67.60
19397;DHT22;9834;48.076;11.878;2022-07-29T11:23:22;26.50;69.30
19397;DHT22;9834;48.076;11.878;2022-07-29T11:26:14;26.40;69.90
19397;DHT22;9834;48.076;11.878;2022-07-29T11:28:51;26.30;71.30
19397;DHT22;9834;48.076;11.878;2022-07-29T11:31:31;26.30;71.00
19397;DHT22;9834;48.076;11.878;2022-07-29T11:34:16;26.40;69.50
19397;DHT22;9834;48.076;11.878;2022-07-29T11:37:17;26.70;70.80
19397;DHT22;9834;48.076;11.878;2022-07-29T11:39:46;26.80;69.70
19397;DHT22;9834;48.076;11.878;2022-07-29T11:42:38;26.90;67.30
19397;DHT22;9834;48.076;11.878;2022-07-29T11:45:08;27.10;66.10
19397;DHT22;9834;48.076;11.878;2022-07-29T11:47:37;28.60;64.30
19397;DHT22;9834;48.076;11.878;2022-07-29T11:50:07;30.60;56.20
19397;DHT22;9834;48.076;11.878;2022-07-29T11:52:35;32.20;51.10
19397;DHT22;9834;48.076;11.878;2022-07-29T11:55:09;33.30;49.00
19397;DHT22;9834;48.076;11.878;2022-07-29T11:57:36;34.70;48.70
19397;DHT22;9834;48.076;11.878;2022-07-29T12:00:07;36.70;47.60
19397;DHT22;9834;48.076;11.878;2022-07-29T12:02:42;38.20;41.30
19397;DHT22;9834;48.076;11.878;2022-07-29T12:05:10;39.70;40.20
19397;DHT22;9834;48.076;11.878;2022-07-29T12:07:38;40.60;33.50
19397;DHT22;9834;48.076;11.878;2022-07-29T12:10:06;40.60;34.00
19397;DHT22;9834;48.076;11.878;2022-07-29T12:12:34;41.00;32.50
19397;DHT22;9834;48.076;11.878;2022-07-29T12:15:13;39.10;34.40
19397;DHT22;9834;48.076;11.878;2022-07-29T12:17:40;36.80;34.40
19397;DHT22;9834;48.076;11.878;2022-07-29T12:20:08;35.10;39.70
19397;DHT22;9834;48.076;11.878;2022-07-29T12:22:36;34.30;39.90
19397;DHT22;9834;48.076;11.878;2022-07-29T12:25:06;33.60;42.40
19397;DHT22;9834;48.076;11.878;2022-07-29T12:27:35;33.20;43.50
19397;DHT22;9834;48.076;11.878;2022-07-29T12:30:05;33.10;42.20
19397;DHT22;9834;48.076;11.878;2022-07-29T12:32:36;33.70;41.10
19397;DHT22;9834;48.076;11.878;2022-07-29T12:35:05;35.30;39.00
19397;DHT22;9834;48.076;11.878;2022-07-29T12:37:33;35.00;39.90
19397;DHT22;9834;48.076;11.878;2022-07-29T12:40:01;35.10;39.40
19397;DHT22;9834;48.076;11.878;2022-07-29T12:42:28;36.10;38.90
19397;DHT22;9834;48.076;11.878;2022-07-29T12:44:55;36.60;37.60
19397;DHT22;9834;48.076;11.878;2022-07-29T12:47:22;36.20;37.80
19397;DHT22;9834;48.076;11.878;2022-07-29T12:50:07;35.40;39.20
19397;DHT22;9834;48.076;11.878;2022-07-29T12:52:35;34.70;39.90
19397;DHT22;9834;48.076;11.878;2022-07-29T12:55:03;34.20;39.80
19397;DHT22;9834;48.076;11.878;2022-07-29T12:57:30;33.60;41.40
19397;DHT22;9834;48.076;11.878;2022-07-29T13:00:05;32.80;41.80
19397;DHT22;9834;48.076;11.878;2022-07-29T13:02:33;32.20;43.10
19397;DHT22;9834;48.076;11.878;2022-07-29T13:05:03;31.70;44.20
19397;DHT22;9834;48.076;11.878;2022-07-29T13:07:31;31.80;44.50
19397;DHT22;9834;48.076;11.878;2022-07-29T13:10:12;31.60;45.80
19397;DHT22;9834;48.076;11.878;2022-07-29T13:13:03;31.90;44.90
19397;DHT22;9834;48.076;11.878;2022-07-29T13:15:31;32.20;43.30
19397;DHT22;9834;48.076;11.878;2022-07-29T13:17:58;32.70;42.90
19397;DHT22;9834;48.076;11.878;2022-07-29T13:20:28;33.40;43.40
19397;DHT22;9834;48.076;11.878;2022-07-29T13:22:56;33.20;42.70
19397;DHT22;9834;48.076;11.878;2022-07-29T13:25:25;32.90;43.20
19397;DHT22;9834;48.076;11.878;2022-07-29T13:27:52;33.50;42.40
19397;DHT22;9834;48.076;11.878;2022-07-29T13:30:21;33.70;41.50
19397;DHT22;9834;48.076;11.878;2022-07-29T13:32:48;33.30;41.30
19397;DHT22;9834;48.076;11.878;2022-07-29T13:35:15;32.40;42.50
19397;DHT22;9834;48.076;11.878;2022-07-29T13:37:43;31.90;44.90
19397;DHT22;9834;48.076;11.878;2022-07-29T13:40:11;32.00;44.40
19397;DHT22;9834;48.076;11.878;2022-07-29T13:42:39;31.80;43.80
19397;DHT22;9834;48.076;11.878;2022-07-29T13:45:08;31.60;45.20
19397;DHT22;9834;48.076;11.878;2022-07-29T13:47:36;31.80;44.10
19397;DHT22;9834;48.076;11.878;2022-07-29T13:50:05;31.90;44.10
19397;DHT22;9834;48.076;11.878;2022-07-29T13:52:33;32.70;42.30
19397;DHT22;9834;48.076;11.878;2022-07-29T13:55:02;34.60;40.80
19397;DHT22;9834;48.076;11.878;2022-07-29T13:57:30;34.90;40.10
19397;DHT22;9834;48.076;11.878;2022-07-29T13:59:57;33.70;40.80
19397;DHT22;9834;48.076;11.878;2022-07-29T14:02:24;33.40;41.20
19397;DHT22;9834;48.076;11.878;2022-07-29T14:04:51;34.50;40.90
19397;DHT22;9834;48.076;11.878;2022-07-29T14:07:18;34.30;40.00
19397;DHT22;9834;48.076;11.878;2022-07-29T14:09:45;33.20;41.10
19397;DHT22;9834;48.076;11.878;2022-07-29T14:12:14;31.80;43.20
19397;DHT22;9834;48.076;11.878;2022-07-29T14:14:41;30.90;44.60
19397;DHT22;9834;48.076;11.878;2022-07-29T14:17:08;30.20;47.50
19397;DHT22;9834;48.076;11.878;2022-07-29T14:19:35;29.90;48.90
19397;DHT22;9834;48.076;11.878;2022-07-29T14:22:04;29.40;51.30
19397;DHT22;9834;48.076;11.878;2022-07-29T14:24:31;29.20;51.90
19397;DHT22;9834;48.076;11.878;2022-07-29T14:26:58;28.80;52.70
19397;DHT22;9834;48.076;11.878;2022-07-29T14:29:27;28.70;53.30
19397;DHT22;9834;48.076;11.878;2022-07-29T14:31:53;28.70;54.40
19397;DHT22;9834;48.076;11.878;2022-07-29T14:34:21;28.80;54.90
19397;DHT22;9834;48.076;11.878;2022-07-29T14:36:48;29.00;54.70
19397;DHT22;9834;48.076;11.878;2022-07-29T14:39:15;29.10;53.90
19397;DHT22;9834;48.076;11.878;2022-07-29T14:41:42;29.00;53.60
19397;DHT22;9834;48.076;11.878;2022-07-29T14:44:09;29.10;54.00
19397;DHT22;9834;48.076;11.878;2022-07-29T14:46:38;29.30;53.40
19397;DHT22;9834;48.076;11.878;2022-07-29T14:49:05;29.80;53.30
19397;DHT22;9834;48.076;11.878;2022-07-29T14:51:32;30.30;51.60
19397;DHT22;9834;48.076;11.878;2022-07-29T14:53:59;31.70;53.40
19397;DHT22;9834;48.076;11.878;2022-07-29T14:56:26;33.80;48.00
19397;DHT22;9834;48.076;11.878;2022-07-29T14:58:55;36.20;44.20
19397;DHT22;9834;48.076;11.878;2022-07-29T15:01:22;36.90;41.70
19397;DHT22;9834;48.076;11.878;2022-07-29T15:03:51;37.30;37.90
19397;DHT22;9834;48.076;11.878;2022-07-29T15:06:18;38.20;37.40
19397;DHT22;9834;48.076;11.878;2022-07-29T15:08:45;38.50;36.10
19397;DHT22;9834;48.076;11.878;2022-07-29T15:11:12;36.20;38.30
19397;DHT22;9834;48.076;11.878;2022-07-29T15:13:39;34.50;41.00
19397;DHT22;9834;48.076;11.878;2022-07-29T15:16:07;34.00;40.90
19397;DHT22;9834;48.076;11.878;2022-07-29T15:18:34;33.50;41.20
19397;DHT22;9834;48.076;11.878;2022-07-29T15:21:05;33.30;42.00
19397;DHT22;9834;48.076;11.878;2022-07-29T15:23:33;34.40;41.70
19397;DHT22;9834;48.076;11.878;2022-07-29T15:26:01;34.90;40.60
19397;DHT22;9834;48.076;11.878;2022-07-29T15:28:28;33.70;41.40
19397;DHT22;9834;48.076;11.878;2022-07-29T15:30:55;32.50;43.70
19397;DHT22;9834;48.076;11.878;2022-07-29T15:33:22;31.40;46.70
19397;DHT22;9834;48.076;11.878;2022-07-29T15:35:49;30.40;48.80
19397;DHT22;9834;48.076;11.878;2022-07-29T15:38:18;29.60;51.10
19397;DHT22;9834;48.076;11.878;2022-07-29T15:40:45;28.80;53.30
19397;DHT22;9834;48.076;11.878;2022-07-29T15:43:12;28.00;54.90
19397;DHT22;9834;48.076;11.878;2022-07-29T15:45:39;27.50;56.00
19397;DHT22;9834;48.076;11.878;2022-07-29T15:48:08;27.10;56.70